Time;durP1;ratioP1;P1;durP2;ratioP2;P2;SDS_P1;SDS_P2;PMS_P1;PMS_P2;Temp;Humidity;BMP_temperature;BMP_pressure;BME280_temperature;BME280_humidity;BME280_pressure;Samples;Min_cycle;Max_cycle;Signal;HPM_P1;HPM_P2
2023/01/18 00:00:40;;;;;;;44.95;21.20;;;;;;;;;;5072611;28;20041;-55
2023/01/18 00:03:10;;;;;;;47.67;21.70;;;;;;;;;;5068395;28;20098;-57
2023/01/18 00:05:39;;;;;;;43.97;21.33;;;;;;;;;;5068902;28;20188;-59
2023/01/18 00:08:13;;;;;;;47.70;21.55;;;;;;;;;;5068686;28;20064;-58
2023/01/18 00:10:39;;;;;;;43.88;20.35;;;;;;;;;;5068914;28;20036;-57
2023/01/18 00:13:05;;;;;;;40.17;20.70;;;;;;;;;;5067990;28;20032;-56
2023/01/18 00:15:31;;;;;;;46.28;20.13;;;;;;;;;;5069909;28;20111;-58
2023/01/18 00:17:57;;;;;;;40.08;18.95;;;;;;;;;;5062752;28;20045;-56
2023/01/18 00:20:24;;;;;;;35.00;17.88;;;;;;;;;;5070359;28;20039;-57
2023/01/18 00:22:51;;;;;;;37.83;18.30;;;;;;;;;;5075545;28;20107;-58
2023/01/18 00:25:18;;;;;;;40.75;19.08;;;;;;;;;;5077377;28;20041;-56
2023/01/18 00:27:46;;;;;;;43.08;19.42;;;;;;;;;;5074351;28;20063;-59
2023/01/18 00:30:12;;;;;;;44.75;20.67;;;;;;;;;;5070872;28;20028;-56
2023/01/18 00:32:38;;;;;;;43.38;21.30;;;;;;;;;;5066877;28;20047;-58
2023/01/18 00:35:06;;;;;;;44.20;21.02;;;;;;;;;;5068237;28;20028;-58
2023/01/18 00:37:35;;;;;;;42.10;21.15;;;;;;;;;;5064856;28;20074;-56
2023/01/18 00:40:01;;;;;;;44.92;20.48;;;;;;;;;;5068911;28;20033;-56
2023/01/18 00:45:10;;;;;;;41.60;20.05;;;;;;;;;;5068722;28;20039;-53
2023/01/18 00:47:35;;;;;;;42.72;19.95;;;;;;;;;;5068139;28;20108;-57
2023/01/18 00:50:01;;;;;;;38.80;19.50;;;;;;;;;;5070376;28;20037;-58
2023/01/18 00:52:27;;;;;;;40.70;20.33;;;;;;;;;;5069467;28;20169;-56
2023/01/18 00:54:52;;;;;;;42.45;20.02;;;;;;;;;;5069808;28;20036;-56
2023/01/18 00:57:17;;;;;;;46.80;21.02;;;;;;;;;;5069580;28;20032;-57
2023/01/18 00:59:45;;;;;;;47.80;20.95;;;;;;;;;;5080627;28;20072;-60
2023/01/18 01:02:11;;;;;;;43.85;20.40;;;;;;;;;;5068507;28;20043;-58
2023/01/18 01:07:20;;;;;;;41.72;20.38;;;;;;;;;;5082314;28;20043;-58
2023/01/18 01:09:45;;;;;;;42.42;19.60;;;;;;;;;;5092907;28;20024;-59
2023/01/18 01:26:09;;;;;;;35.90;17.48;;;;;;;;;;5088433;28;20512;-59
2023/01/18 01:28:36;;;;;;;36.13;17.60;;;;;;;;;;5072420;28;20056;-55
2023/01/18 01:31:03;;;;;;;32.88;16.10;;;;;;;;;;5074154;28;20461;-57
2023/01/18 01:33:30;;;;;;;31.33;16.30;;;;;;;;;;5093856;28;20400;-58
2023/01/18 01:35:57;;;;;;;33.95;15.57;;;;;;;;;;5090216;28;20035;-55
2023/01/18 01:38:22;;;;;;;33.83;17.13;;;;;;;;;;5086324;28;20032;-57
2023/01/18 01:41:25;;;;;;;37.17;17.10;;;;;;;;;;5072339;28;20449;-61
2023/01/18 01:43:59;;;;;;;34.60;16.35;;;;;;;;;;5062421;28;20044;-56
2023/01/18 01:46:47;;;;;;;35.22;16.35;;;;;;;;;;5078371;28;20422;-58
2023/01/18 01:49:16;;;;;;;30.25;15.18;;;;;;;;;;5085760;28;20028;-57
2023/01/18 01:51:45;;;;;;;29.70;15.25;;;;;;;;;;5073047;28;20105;-58
2023/01/18 01:54:28;;;;;;;34.33;15.70;;;;;;;;;;5051725;28;20033;-59
2023/01/18 01:57:04;;;;;;;32.92;15.80;;;;;;;;;;5064392;28;20037;-55
2023/01/18 01:59:34;;;;;;;32.78;15.13;;;;;;;;;;5069933;28;20063;-57
2023/01/18 02:01:59;;;;;;;35.92;15.77;;;;;;;;;;5069444;28;20037;-59
2023/01/18 02:04:25;;;;;;;29.55;15.18;;;;;;;;;;5092734;28;20035;-58
2023/01/18 02:06:50;;;;;;;35.85;16.13;;;;;;;;;;5074786;28;20496;-59
2023/01/18 02:09:21;;;;;;;33.08;16.38;;;;;;;;;;5073460;28;20033;-58
2023/01/18 02:11:48;;;;;;;;;;;;;;;;;;5074861;28;20043;-61
2023/01/18 02:14:15;;;;;;;32.05;15.55;;;;;;;;;;5092801;28;19915;-58
2023/01/18 02:17:03;;;;;;;28.25;15.00;;;;;;;;;;5080023;28;20496;-54
2023/01/18 02:19:44;;;;;;;30.83;14.93;;;;;;;;;;5071910;28;20048;-59
2023/01/18 02:22:37;;;;;;;33.78;14.15;;;;;;;;;;5069277;28;20050;-58
2023/01/18 02:25:41;;;;;;;30.35;14.27;;;;;;;;;;5066692;28;20032;-56
2023/01/18 02:28:20;;;;;;;27.30;13.45;;;;;;;;;;5029395;28;20033;-60
2023/01/18 02:31:12;;;;;;;30.75;14.15;;;;;;;;;;5077816;28;20043;-59
2023/01/18 02:33:56;;;;;;;30.13;14.75;;;;;;;;;;5092917;28;20028;-57
2023/01/18 02:36:30;;;;;;;27.70;13.55;;;;;;;;;;5080638;28;20112;-60
2023/01/18 02:39:05;;;;;;;32.97;15.00;;;;;;;;;;5071291;28;20040;-59
2023/01/18 02:47:17;;;;;;;29.92;14.05;;;;;;;;;;5079190;28;20511;-58
2023/01/18 02:49:42;;;;;;;27.65;14.27;;;;;;;;;;5070132;28;20033;-59
2023/01/18 02:52:40;;;;;;;34.10;15.13;;;;;;;;;;5064695;28;20033;-59
2023/01/18 02:55:12;;;;;;;29.42;14.10;;;;;;;;;;5069919;28;20035;-58
2023/01/18 02:57:39;;;;;;;31.63;14.68;;;;;;;;;;5068997;28;20039;-59
2023/01/18 03:00:10;;;;;;;31.50;15.95;;;;;;;;;;5086075;28;20048;-59
2023/01/18 03:02:37;;;;;;;;;;;;;;;;;;5075260;28;20056;-59
2023/01/18 03:05:03;;;;;;;35.50;15.73;;;;;;;;;;5069417;28;20437;-59
2023/01/18 03:07:38;;;;;;;32.65;16.75;;;;;;;;;;5071135;28;20031;-58
2023/01/18 03:10:06;;;;;;;43.58;18.42;;;;;;;;;;5068402;28;20600;-58
2023/01/18 03:12:46;;;;;;;38.95;18.98;;;;;;;;;;5060468;28;20469;-57
2023/01/18 03:15:33;;;;;;;40.08;17.77;;;;;;;;;;5068727;28;20183;-57
2023/01/18 03:18:19;;;;;;;39.88;18.05;;;;;;;;;;5069313;28;20107;-56
2023/01/18 03:20:54;;;;;;;40.22;19.27;;;;;;;;;;5067922;28;20033;-56
2023/01/18 03:23:44;;;;;;;43.72;18.63;;;;;;;;;;5070767;28;20026;-57
2023/01/18 03:26:15;;;;;;;37.22;18.13;;;;;;;;;;5055100;28;20495;-59
2023/01/18 03:34:20;;;;;;;38.10;19.80;;;;;;;;;;5054047;28;20340;-60
2023/01/18 03:36:48;;;;;;;37.78;18.20;;;;;;;;;;5068862;28;20032;-60
2023/01/18 03:39:23;;;;;;;38.03;18.48;;;;;;;;;;5068594;28;20270;-59
2023/01/18 03:41:53;;;;;;;37.00;18.13;;;;;;;;;;5071449;28;20032;-60
2023/01/18 03:44:30;;;;;;;40.33;18.15;;;;;;;;;;5069036;28;20039;-60
2023/01/18 03:46:56;;;;;;;32.28;16.73;;;;;;;;;;5069298;28;20043;-61
2023/01/18 03:49:22;;;;;;;36.13;17.58;;;;;;;;;;5069754;28;20043;-60
2023/01/18 03:51:58;;;;;;;33.60;17.05;;;;;;;;;;5069471;28;20032;-59
2023/01/18 03:55:19;;;;;;;33.85;17.25;;;;;;;;;;5058386;28;20028;-59
2023/01/18 03:57:57;;;;;;;37.50;17.15;;;;;;;;;;5005307;28;20046;-58
2023/01/18 04:00:23;;;;;;;39.22;16.48;;;;;;;;;;5069912;28;20478;-59
2023/01/18 04:02:49;;;;;;;32.83;16.95;;;;;;;;;;5070051;28;20041;-59
2023/01/18 04:05:15;;;;;;;35.25;17.15;;;;;;;;;;5064059;28;20364;-59
2023/01/18 04:07:41;;;;;;;37.13;16.55;;;;;;;;;;5066037;28;20041;-58
2023/01/18 04:10:07;;;;;;;30.77;17.00;;;;;;;;;;5069670;28;20102;-61
2023/01/18 04:12:33;;;;;;;29.42;15.73;;;;;;;;;;5071322;28;20024;-58
2023/01/18 04:14:59;;;;;;;40.75;17.00;;;;;;;;;;5068624;28;20362;-59
2023/01/18 04:17:25;;;;;;;37.83;17.80;;;;;;;;;;5069150;28;20087;-60
2023/01/18 04:19:51;;;;;;;35.35;17.25;;;;;;;;;;5068828;28;20062;-60
2023/01/18 04:22:16;;;;;;;38.80;17.80;;;;;;;;;;5068771;28;20461;-60
2023/01/18 04:24:42;;;;;;;38.63;18.42;;;;;;;;;;5066481;28;20029;-60
2023/01/18 04:27:07;;;;;;;37.88;18.40;;;;;;;;;;5067373;28;20495;-60
2023/01/18 04:29:33;;;;;;;39.95;18.00;;;;;;;;;;5073293;28;20028;-62
2023/01/18 04:31:58;;;;;;;38.85;18.27;;;;;;;;;;5090375;28;20384;-60
2023/01/18 04:34:24;;;;;;;37.75;17.60;;;;;;;;;;5081745;28;22283;-56
2023/01/18 04:36:50;;;;;;;32.75;17.75;;;;;;;;;;5078839;28;20028;-57
2023/01/18 04:39:16;;;;;;;35.55;17.30;;;;;;;;;;5079815;28;20043;-58
2023/01/18 04:41:41;;;;;;;35.67;16.63;;;;;;;;;;5067148;28;20078;-57
2023/01/18 04:44:07;;;;;;;36.08;16.70;;;;;;;;;;5069788;28;20033;-58
2023/01/18 04:46:33;;;;;;;37.13;17.38;;;;;;;;;;5071516;28;20075;-60
2023/01/18 04:48:58;;;;;;;35.60;16.83;;;;;;;;;;5073733;28;20115;-60
2023/01/18 04:51:26;;;;;;;34.17;16.90;;;;;;;;;;5074768;28;20059;-57
2023/01/18 04:53:51;;;;;;;33.90;16.25;;;;;;;;;;5075215;28;20028;-59
2023/01/18 04:56:17;;;;;;;31.38;16.02;;;;;;;;;;5074574;28;20207;-57
2023/01/18 04:58:43;;;;;;;32.22;15.93;;;;;;;;;;5074974;28;20123;-57
2023/01/18 05:01:12;;;;;;;31.80;15.98;;;;;;;;;;5071226;28;20044;-57
2023/01/18 05:03:40;;;;;;;35.65;16.33;;;;;;;;;;5072564;28;20045;-56
2023/01/18 05:06:07;;;;;;;31.80;15.10;;;;;;;;;;5073099;28;20033;-58
2023/01/18 05:08:33;;;;;;;29.15;14.85;;;;;;;;;;5065541;28;20450;-58
2023/01/18 05:11:03;;;;;;;29.48;14.88;;;;;;;;;;5053484;28;20095;-60
2023/01/18 05:13:30;;;;;;;28.50;14.85;;;;;;;;;;5054936;28;20111;-58
2023/01/18 05:15:56;;;;;;;28.90;14.70;;;;;;;;;;5054853;28;20033;-56
2023/01/18 05:18:21;;;;;;;27.98;15.20;;;;;;;;;;5052571;28;20484;-58
2023/01/18 05:20:47;;;;;;;34.15;15.32;;;;;;;;;;5055015;28;20108;-57
2023/01/18 05:23:13;;;;;;;31.00;14.20;;;;;;;;;;5065774;28;20039;-60
2023/01/18 05:25:39;;;;;;;28.33;14.50;;;;;;;;;;5074557;28;20029;-59
2023/01/18 05:28:07;;;;;;;29.95;15.20;;;;;;;;;;5073805;28;20354;-58
2023/01/18 05:30:41;;;;;;;34.42;15.43;;;;;;;;;;5074737;28;20039;-57
2023/01/18 05:33:08;;;;;;;32.40;15.95;;;;;;;;;;5073693;28;20062;-57
2023/01/18 05:35:34;;;;;;;29.98;15.48;;;;;;;;;;5074475;28;20029;-56
2023/01/18 05:37:59;;;;;;;30.38;14.75;;;;;;;;;;5072224;28;20063;-58
2023/01/18 05:40:25;;;;;;;41.33;15.43;;;;;;;;;;5073934;28;20060;-57
2023/01/18 05:42:50;;;;;;;34.90;15.05;;;;;;;;;;5074427;28;20030;-58
2023/01/18 05:45:16;;;;;;;33.25;15.73;;;;;;;;;;5073161;28;20035;-58
2023/01/18 05:47:41;;;;;;;32.30;15.65;;;;;;;;;;5074100;28;20420;-56
2023/01/18 05:50:07;;;;;;;31.45;15.98;;;;;;;;;;5073240;28;20094;-58
2023/01/18 05:52:33;;;;;;;35.47;16.25;;;;;;;;;;5073566;28;20040;-53
2023/01/18 05:54:58;;;;;;;34.42;16.85;;;;;;;;;;5073196;28;20107;-57
2023/01/18 05:57:24;;;;;;;36.13;17.90;;;;;;;;;;5073278;28;20033;-58
2023/01/18 05:59:49;;;;;;;33.00;15.93;;;;;;;;;;5073848;28;20041;-58
2023/01/18 06:02:15;;;;;;;35.67;17.23;;;;;;;;;;5072976;28;20068;-58
2023/01/18 06:04:40;;;;;;;36.38;17.55;;;;;;;;;;5073829;28;20051;-58
2023/01/18 06:07:08;;;;;;;44.05;17.58;;;;;;;;;;5071094;28;20028;-61
2023/01/18 06:09:33;;;;;;;34.22;17.50;;;;;;;;;;5071540;28;20453;-56
2023/01/18 06:11:58;;;;;;;33.22;16.83;;;;;;;;;;5073705;28;20086;-59
2023/01/18 06:14:24;;;;;;;33.95;16.70;;;;;;;;;;5072949;28;20071;-57
2023/01/18 06:16:49;;;;;;;34.45;15.80;;;;;;;;;;5073408;28;20142;-57
2023/01/18 06:19:14;;;;;;;31.08;16.20;;;;;;;;;;5072583;28;20029;-56
2023/01/18 06:21:40;;;;;;;33.90;16.48;;;;;;;;;;5073649;28;20037;-59
2023/01/18 06:24:06;;;;;;;31.27;14.98;;;;;;;;;;5062307;28;20029;-61
2023/01/18 06:26:31;;;;;;;35.25;16.30;;;;;;;;;;5054029;28;20036;-58
2023/01/18 06:28:57;;;;;;;31.67;16.20;;;;;;;;;;5053667;28;20040;-57
2023/01/18 06:31:22;;;;;;;38.78;17.05;;;;;;;;;;5052349;28;20754;-56
2023/01/18 06:33:48;;;;;;;34.13;16.67;;;;;;;;;;5053733;28;20025;-56
2023/01/18 06:36:14;;;;;;;34.25;15.27;;;;;;;;;;5061433;28;20465;-57
2023/01/18 06:38:40;;;;;;;41.65;17.90;;;;;;;;;;5073365;28;20036;-54
2023/01/18 06:41:06;;;;;;;40.88;17.48;;;;;;;;;;5072626;28;20112;-57
2023/01/18 06:43:31;;;;;;;37.53;16.27;;;;;;;;;;5070843;28;20456;-55
2023/01/18 06:45:57;;;;;;;36.05;16.88;;;;;;;;;;5073241;28;20052;-58
2023/01/18 06:48:24;;;;;;;37.25;16.90;;;;;;;;;;5067294;28;20762;-56
2023/01/18 06:50:53;;;;;;;35.97;17.13;;;;;;;;;;5073074;28;20033;-56
2023/01/18 06:53:19;;;;;;;29.25;16.08;;;;;;;;;;5072050;28;20078;-57
2023/01/18 06:55:52;;;;;;;33.17;16.35;;;;;;;;;;5072856;28;20074;-56
2023/01/18 06:58:18;;;;;;;29.48;15.20;;;;;;;;;;5070675;28;20492;-59
2023/01/18 07:00:43;;;;;;;32.20;15.63;;;;;;;;;;5072531;28;20052;-59
2023/01/18 07:03:09;;;;;;;32.33;15.52;;;;;;;;;;5070478;28;20116;-57
2023/01/18 07:05:35;;;;;;;31.70;15.20;;;;;;;;;;5071005;28;20029;-59
2023/01/18 07:08:00;;;;;;;32.78;15.48;;;;;;;;;;5072656;28;20024;-58
2023/01/18 07:10:25;;;;;;;29.70;15.55;;;;;;;;;;5071916;28;20036;-59
2023/01/18 07:12:51;;;;;;;34.95;15.82;;;;;;;;;;5072588;28;20067;-57
2023/01/18 07:15:16;;;;;;;35.90;16.50;;;;;;;;;;5072121;28;20032;-58
2023/01/18 07:17:43;;;;;;;38.08;17.40;;;;;;;;;;5071536;28;20029;-64
2023/01/18 07:20:10;;;;;;;31.88;16.38;;;;;;;;;;5070443;28;20119;-57
2023/01/18 07:22:36;;;;;;;36.03;16.77;;;;;;;;;;5072187;28;20033;-59
2023/01/18 07:25:01;;;;;;;30.88;16.17;;;;;;;;;;5072533;28;20484;-57
2023/01/18 07:27:27;;;;;;;30.83;15.57;;;;;;;;;;5071511;28;20021;-57
2023/01/18 07:29:54;;;;;;;31.30;15.52;;;;;;;;;;5070994;28;20032;-57
2023/01/18 07:32:19;;;;;;;27.42;14.30;;;;;;;;;;5071790;28;20031;-58
2023/01/18 07:34:45;;;;;;;31.70;15.70;;;;;;;;;;5072431;28;20032;-58
2023/01/18 07:37:10;;;;;;;29.77;15.48;;;;;;;;;;5070134;28;20440;-55
2023/01/18 07:39:35;;;;;;;29.58;14.57;;;;;;;;;;5072144;28;20374;-55
2023/01/18 07:42:01;;;;;;;30.92;15.35;;;;;;;;;;5071903;28;20031;-58
2023/01/18 07:44:26;;;;;;;30.98;14.65;;;;;;;;;;5070293;28;20641;-59
2023/01/18 07:46:52;;;;;;;29.38;15.30;;;;;;;;;;5072339;28;20112;-56
2023/01/18 07:49:17;;;;;;;32.67;15.65;;;;;;;;;;5071152;28;20043;-59
2023/01/18 07:51:42;;;;;;;35.25;16.48;;;;;;;;;;5067382;28;20469;-59
2023/01/18 07:54:08;;;;;;;32.83;16.58;;;;;;;;;;5070582;28;20028;-58
2023/01/18 07:56:33;;;;;;;31.95;15.90;;;;;;;;;;5071675;28;20457;-58
2023/01/18 07:58:59;;;;;;;36.83;15.38;;;;;;;;;;5071845;28;20108;-54
2023/01/18 08:01:25;;;;;;;32.22;16.27;;;;;;;;;;5069410;28;20058;-57
2023/01/18 08:03:53;;;;;;;31.50;14.82;;;;;;;;;;5072416;28;20446;-58
2023/01/18 08:06:24;;;;;;;32.05;15.32;;;;;;;;;;5070207;28;20036;-58
2023/01/18 08:08:50;;;;;;;33.83;16.60;;;;;;;;;;5072267;28;20071;-59
2023/01/18 08:11:15;;;;;;;32.03;15.93;;;;;;;;;;5070940;28;20385;-58
2023/01/18 08:13:41;;;;;;;30.50;16.05;;;;;;;;;;5053901;28;20029;-58
2023/01/18 08:16:09;;;;;;;35.47;16.35;;;;;;;;;;5071821;28;20035;-58
2023/01/18 08:18:35;;;;;;;35.40;16.85;;;;;;;;;;5075096;28;20078;-59
2023/01/18 08:21:00;;;;;;;38.88;16.58;;;;;;;;;;5072806;28;20393;-57
2023/01/18 08:23:26;;;;;;;38.97;17.85;;;;;;;;;;5073786;28;20465;-59
2023/01/18 08:25:52;;;;;;;34.45;16.70;;;;;;;;;;5075519;28;20473;-58
2023/01/18 08:28:17;;;;;;;32.10;16.42;;;;;;;;;;5074750;28;20028;-57
2023/01/18 08:30:45;;;;;;;32.67;16.08;;;;;;;;;;5075653;28;20036;-59
2023/01/18 08:33:11;;;;;;;35.13;17.75;;;;;;;;;;5075075;28;20064;-61
2023/01/18 08:35:44;;;;;;;36.28;18.15;;;;;;;;;;5074143;28;20062;-58
2023/01/18 08:38:11;;;;;;;40.92;18.58;;;;;;;;;;5075162;28;20035;-60
2023/01/18 08:40:37;;;;;;;34.17;17.00;;;;;;;;;;5074733;28;20396;-58
2023/01/18 08:43:03;;;;;;;34.13;17.92;;;;;;;;;;5075753;28;20107;-58
2023/01/18 08:45:29;;;;;;;38.45;18.27;;;;;;;;;;5073537;28;20036;-59
2023/01/18 08:47:59;;;;;;;36.72;17.65;;;;;;;;;;5075507;28;20100;-59
2023/01/18 08:50:25;;;;;;;41.42;18.45;;;;;;;;;;5072226;28;20413;-58
2023/01/18 08:52:53;;;;;;;37.00;17.50;;;;;;;;;;5075419;28;20037;-58
2023/01/18 08:55:20;;;;;;;37.83;18.88;;;;;;;;;;5074389;28;20033;-62
2023/01/18 08:57:46;;;;;;;43.65;20.00;;;;;;;;;;5074325;28;20047;-57
2023/01/18 09:00:12;;;;;;;39.70;20.08;;;;;;;;;;5074335;28;20040;-61
2023/01/18 09:02:38;;;;;;;33.90;18.95;;;;;;;;;;5074674;28;20372;-56
2023/01/18 09:05:04;;;;;;;44.08;19.98;;;;;;;;;;5074965;28;20028;-57
2023/01/18 09:07:29;;;;;;;43.95;21.77;;;;;;;;;;5073833;28;20035;-57
2023/01/18 09:09:54;;;;;;;43.20;19.88;;;;;;;;;;5074318;28;20453;-57
2023/01/18 09:12:20;;;;;;;41.67;19.80;;;;;;;;;;5072283;28;20047;-57
2023/01/18 09:14:45;;;;;;;40.53;20.13;;;;;;;;;;5074615;28;20480;-56
2023/01/18 09:17:10;;;;;;;40.50;19.42;;;;;;;;;;5074579;28;20117;-58
2023/01/18 09:19:36;;;;;;;37.38;19.15;;;;;;;;;;5073568;28;20032;-56
2023/01/18 09:22:02;;;;;;;38.08;19.63;;;;;;;;;;5074394;28;20437;-56
2023/01/18 09:24:28;;;;;;;38.20;19.95;;;;;;;;;;5073609;28;20033;-56
2023/01/18 09:26:54;;;;;;;36.53;19.52;;;;;;;;;;5073902;28;20465;-57
2023/01/18 09:29:20;;;;;;;41.88;19.77;;;;;;;;;;5072206;28;20029;-53
2023/01/18 09:31:46;;;;;;;39.38;19.73;;;;;;;;;;5074164;28;20059;-57
2023/01/18 09:34:12;;;;;;;39.72;20.55;;;;;;;;;;5074221;28;20033;-56
2023/01/18 09:36:39;;;;;;;43.58;20.08;;;;;;;;;;5072289;28;20056;-57
2023/01/18 09:39:05;;;;;;;44.53;21.52;;;;;;;;;;5074058;28;20029;-58
2023/01/18 09:41:35;;;;;;;37.33;20.73;;;;;;;;;;5072262;28;20029;-58
2023/01/18 09:44:07;;;;;;;39.53;20.35;;;;;;;;;;5074171;28;20086;-58
2023/01/18 09:46:36;;;;;;;42.33;20.63;;;;;;;;;;5072399;28;20020;-55
2023/01/18 09:49:05;;;;;;;39.45;20.48;;;;;;;;;;5074076;28;20020;-54
2023/01/18 09:51:37;;;;;;;41.13;21.27;;;;;;;;;;5073187;28;20036;-57
2023/01/18 09:54:33;;;;;;;40.35;21.13;;;;;;;;;;5074061;28;20055;-56
2023/01/18 09:57:14;;;;;;;40.65;20.70;;;;;;;;;;5071443;28;20071;-57
2023/01/18 09:59:59;;;;;;;40.35;21.63;;;;;;;;;;5073074;28;20076;-56
2023/01/18 10:02:34;;;;;;;41.63;20.77;;;;;;;;;;5072711;28;20124;-57
2023/01/18 10:05:05;;;;;;;48.47;21.55;;;;;;;;;;5072838;28;20440;-55
2023/01/18 10:07:32;;;;;;;;;;;;;;;;;;5073280;28;20477;-57
2023/01/18 10:10:00;;;;;;;37.33;18.58;;;;;;;;;;5073594;28;19948;-55
2023/01/18 10:12:53;;;;;;;36.03;19.65;;;;;;;;;;5070197;28;20097;-59
2023/01/18 10:15:24;;;;;;;40.45;21.08;;;;;;;;;;5069623;28;20033;-59
2023/01/18 10:17:54;;;;;;;44.72;21.60;;;;;;;;;;5071505;28;20032;-56
2023/01/18 10:20:35;;;;;;;40.88;22.30;;;;;;;;;;5072604;28;20087;-58
2023/01/18 10:23:01;;;;;;;36.80;20.95;;;;;;;;;;5071578;28;20032;-57
2023/01/18 10:25:32;;;;;;;43.15;22.67;;;;;;;;;;5072961;28;20058;-57
2023/01/18 10:27:57;;;;;;;38.60;21.25;;;;;;;;;;5072229;28;20066;-56
2023/01/18 10:30:34;;;;;;;43.25;19.65;;;;;;;;;;5072507;28;20461;-58
2023/01/18 10:33:06;;;;;;;41.35;21.70;;;;;;;;;;5073421;28;20032;-56
2023/01/18 10:35:40;;;;;;;43.15;21.42;;;;;;;;;;5071968;28;20104;-55
2023/01/18 10:38:10;;;;;;;31.02;15.45;;;;;;;;;;5071987;28;20036;-57
2023/01/18 10:40:38;;;;;;;40.15;20.25;;;;;;;;;;5071882;28;20028;-57
2023/01/18 10:43:09;;;;;;;42.13;22.77;;;;;;;;;;5072751;28;20481;-56
2023/01/18 10:45:34;;;;;;;;;;;;;;;;;;5072510;28;20101;-54
2023/01/18 10:48:20;;;;;;;43.78;21.40;;;;;;;;;;5072840;28;19970;-56
2023/01/18 10:50:48;;;;;;;42.15;23.08;;;;;;;;;;5071113;28;20381;-57
2023/01/18 10:53:30;;;;;;;41.85;21.88;;;;;;;;;;5071151;28;20392;-57
2023/01/18 10:56:08;;;;;;;42.08;21.63;;;;;;;;;;5073013;28;20543;-57
2023/01/18 10:58:45;;;;;;;33.85;19.50;;;;;;;;;;5071732;28;20032;-59
2023/01/18 11:01:18;;;;;;;36.20;20.38;;;;;;;;;;5072692;28;20048;-61
2023/01/18 11:03:46;;;;;;;35.55;19.98;;;;;;;;;;5072251;28;20068;-56
2023/01/18 11:06:15;;;;;;;36.00;17.70;;;;;;;;;;5072433;28;20074;-59
2023/01/18 11:08:41;;;;;;;31.35;18.88;;;;;;;;;;5069827;28;20032;-59
2023/01/18 11:11:22;;;;;;;34.22;16.15;;;;;;;;;;5071684;28;20103;-55
2023/01/18 11:13:48;;;;;;;33.05;17.77;;;;;;;;;;5072421;28;20029;-55
2023/01/18 11:16:20;;;;;;;34.08;18.35;;;;;;;;;;5072373;28;20488;-57
2023/01/18 11:19:03;;;;;;;32.35;16.50;;;;;;;;;;5071528;28;20048;-56
2023/01/18 11:21:44;;;;;;;28.48;15.90;;;;;;;;;;5071314;28;20475;-54
2023/01/18 11:24:16;;;;;;;31.50;17.52;;;;;;;;;;5072053;28;20033;-54
2023/01/18 11:27:09;;;;;;;29.55;16.15;;;;;;;;;;5069530;28;20108;-58
2023/01/18 11:29:38;;;;;;;23.95;14.57;;;;;;;;;;5071221;28;20029;-59
2023/01/18 11:32:23;;;;;;;25.55;15.05;;;;;;;;;;5072056;28;20036;-58
2023/01/18 11:34:51;;;;;;;25.45;14.65;;;;;;;;;;5071867;28;20102;-58
2023/01/18 11:37:28;;;;;;;27.27;13.15;;;;;;;;;;5072046;28;20089;-56
2023/01/18 11:39:53;;;;;;;27.63;15.55;;;;;;;;;;5071869;28;20036;-56
2023/01/18 11:42:27;;;;;;;26.63;15.07;;;;;;;;;;5068128;28;20042;-57
2023/01/18 11:45:16;;;;;;;27.90;14.50;;;;;;;;;;5071599;28;20037;-56
2023/01/18 11:48:05;;;;;;;24.80;12.68;;;;;;;;;;5071217;28;20259;-56
2023/01/18 11:50:45;;;;;;;19.23;12.13;;;;;;;;;;5070571;28;20047;-57
2023/01/18 11:53:40;;;;;;;21.65;12.30;;;;;;;;;;5068559;28;20036;-55
2023/01/18 11:56:13;;;;;;;20.83;11.68;;;;;;;;;;5071874;28;20038;-57
2023/01/18 11:58:39;;;;;;;21.33;13.38;;;;;;;;;;5070981;28;20029;-58
2023/01/18 12:01:25;;;;;;;22.67;13.20;;;;;;;;;;5071887;28;20069;-59
2023/01/18 12:04:10;;;;;;;22.90;11.75;;;;;;;;;;5071823;28;20099;-59
2023/01/18 12:06:40;;;;;;;22.95;12.15;;;;;;;;;;5071146;28;20028;-59
2023/01/18 12:09:23;;;;;;;21.65;12.32;;;;;;;;;;5070188;28;20178;-58
2023/01/18 12:12:12;;;;;;;19.50;11.85;;;;;;;;;;5071567;28;20047;-59
2023/01/18 12:15:00;;;;;;;22.98;10.93;;;;;;;;;;5071061;28;20120;-58
2023/01/18 12:17:58;;;;;;;17.70;9.65;;;;;;;;;;5070250;28;20033;-61
2023/01/18 12:20:37;;;;;;;17.00;8.18;;;;;;;;;;5071173;28;20034;-61
2023/01/18 12:23:36;;;;;;;20.05;9.93;;;;;;;;;;5071479;28;20028;-60
2023/01/18 12:26:20;;;;;;;22.13;9.55;;;;;;;;;;5071575;28;20060;-60
2023/01/18 12:28:51;;;;;;;12.70;5.97;;;;;;;;;;5070604;28;20092;-61
2023/01/18 12:31:49;;;;;;;16.17;7.30;;;;;;;;;;5069766;28;20040;-60
2023/01/18 12:34:20;;;;;;;14.23;7.38;;;;;;;;;;5070150;28;20024;-60
2023/01/18 12:37:01;;;;;;;16.55;8.52;;;;;;;;;;5069401;28;20028;-60
2023/01/18 12:39:45;;;;;;;16.05;7.68;;;;;;;;;;5070714;28;20028;-62
2023/01/18 12:42:34;;;;;;;11.77;6.32;;;;;;;;;;5071010;28;20043;-59
2023/01/18 12:45:09;;;;;;;15.60;8.40;;;;;;;;;;5070758;28;20036;-57
2023/01/18 12:47:46;;;;;;;16.58;6.95;;;;;;;;;;5070339;28;20059;-58
2023/01/18 12:50:25;;;;;;;14.13;6.65;;;;;;;;;;5071124;28;20107;-56
2023/01/18 12:53:00;;;;;;;12.73;7.80;;;;;;;;;;5069023;28;20040;-58
2023/01/18 12:55:30;;;;;;;14.60;7.68;;;;;;;;;;5070964;28;20484;-59
2023/01/18 12:57:58;;;;;;;11.77;6.03;;;;;;;;;;5070046;28;20056;-54
2023/01/18 13:00:25;;;;;;;10.48;5.60;;;;;;;;;;5069250;28;20395;-56
2023/01/18 13:02:55;;;;;;;13.60;7.35;;;;;;;;;;5070964;28;20362;-55
2023/01/18 13:05:32;;;;;;;9.30;5.43;;;;;;;;;;5074883;28;20055;-57
2023/01/18 13:08:05;;;;;;;13.20;7.63;;;;;;;;;;5071894;28;20421;-57
2023/01/18 13:10:33;;;;;;;13.60;6.00;;;;;;;;;;5073349;28;20040;-59
2023/01/18 13:13:01;;;;;;;15.00;6.65;;;;;;;;;;5073549;28;20082;-55
2023/01/18 13:16:08;;;;;;;13.82;6.35;;;;;;;;;;5073352;28;20488;-59
2023/01/18 13:18:58;;;;;;;11.55;6.53;;;;;;;;;;5052556;28;20041;-57
2023/01/18 13:21:50;;;;;;;17.13;7.05;;;;;;;;;;5074862;28;20035;-56
2023/01/18 13:24:32;;;;;;;17.38;7.32;;;;;;;;;;5074969;28;20067;-54
2023/01/18 13:27:12;;;;;;;17.85;8.20;;;;;;;;;;5074825;28;20044;-61
2023/01/18 13:29:38;;;;;;;13.75;8.10;;;;;;;;;;5071860;28;20044;-58
2023/01/18 13:32:28;;;;;;;15.43;6.90;;;;;;;;;;5074795;28;20075;-55
2023/01/18 13:35:13;;;;;;;12.05;6.32;;;;;;;;;;5065012;28;20033;-56
2023/01/18 13:37:39;;;;;;;10.95;5.63;;;;;;;;;;5073163;28;20067;-57
2023/01/18 13:40:05;;;;;;;13.65;6.93;;;;;;;;;;5074608;28;20571;-55
2023/01/18 13:42:39;;;;;;;10.52;6.13;;;;;;;;;;5074040;28;20074;-60
2023/01/18 13:45:19;;;;;;;11.00;5.88;;;;;;;;;;5075082;28;20025;-56
2023/01/18 13:47:48;;;;;;;11.15;5.63;;;;;;;;;;5071406;28;20126;-57
2023/01/18 13:50:38;;;;;;;11.65;6.03;;;;;;;;;;5073353;28;20074;-56
2023/01/18 13:53:12;;;;;;;11.00;5.90;;;;;;;;;;5074610;28;20028;-58
2023/01/18 13:55:58;;;;;;;14.27;7.68;;;;;;;;;;5073627;28;20453;-58
2023/01/18 13:58:31;;;;;;;11.73;6.57;;;;;;;;;;5066199;28;20057;-58
2023/01/18 14:01:02;;;;;;;14.05;7.50;;;;;;;;;;5072417;28;20109;-58
2023/01/18 14:03:34;;;;;;;17.17;8.70;;;;;;;;;;5074408;28;20029;-57
2023/01/18 14:06:20;;;;;;;14.15;6.93;;;;;;;;;;5074612;28;20040;-57
2023/01/18 14:08:54;;;;;;;13.82;7.57;;;;;;;;;;5072368;28;20035;-57
2023/01/18 14:11:30;;;;;;;12.93;5.68;;;;;;;;;;5074001;28;20052;-56
2023/01/18 14:14:01;;;;;;;17.10;7.93;;;;;;;;;;5073520;28;20025;-57
2023/01/18 14:16:30;;;;;;;14.35;7.32;;;;;;;;;;5073338;28;20024;-56
2023/01/18 14:19:02;;;;;;;10.00;5.82;;;;;;;;;;5071551;28;20119;-58
2023/01/18 14:21:41;;;;;;;14.13;8.20;;;;;;;;;;5071533;28;20043;-57
2023/01/18 14:24:37;;;;;;;10.75;6.03;;;;;;;;;;5073440;28;20495;-58
2023/01/18 14:27:05;;;;;;;13.25;7.13;;;;;;;;;;5073312;28;20028;-57
2023/01/18 14:29:44;;;;;;;12.38;7.22;;;;;;;;;;5072597;28;20040;-60
2023/01/18 14:32:20;;;;;;;18.13;7.85;;;;;;;;;;5073696;28;20029;-57
2023/01/18 14:34:55;;;;;;;19.30;8.32;;;;;;;;;;5071337;28;20494;-57
2023/01/18 14:37:30;;;;;;;14.77;7.40;;;;;;;;;;5072591;28;20039;-57
2023/01/18 14:40:21;;;;;;;12.63;6.43;;;;;;;;;;5072208;28;20465;-58
2023/01/18 14:42:52;;;;;;;14.20;7.15;;;;;;;;;;5072602;28;20096;-56
2023/01/18 14:45:28;;;;;;;14.40;7.25;;;;;;;;;;5073080;28;20115;-57
2023/01/18 14:47:56;;;;;;;16.30;7.60;;;;;;;;;;5070589;28;20501;-57
2023/01/18 14:50:23;;;;;;;15.63;7.80;;;;;;;;;;5071450;28;20040;-56
2023/01/18 14:52:51;;;;;;;14.32;7.55;;;;;;;;;;5070951;28;20461;-57
2023/01/18 14:55:27;;;;;;;10.93;6.30;;;;;;;;;;5072975;28;20036;-56
2023/01/18 14:58:01;;;;;;;15.30;8.13;;;;;;;;;;5071176;28;20033;-57
2023/01/18 15:00:27;;;;;;;18.02;7.72;;;;;;;;;;5071619;28;20052;-57
2023/01/18 15:02:52;;;;;;;13.77;7.15;;;;;;;;;;5071979;28;20059;-55
2023/01/18 15:05:19;;;;;;;18.67;8.65;;;;;;;;;;5071454;28;20032;-56
2023/01/18 15:07:54;;;;;;;16.58;7.80;;;;;;;;;;5071017;28;20031;-58
2023/01/18 15:10:20;;;;;;;11.80;6.95;;;;;;;;;;5072496;28;20051;-57
2023/01/18 15:12:50;;;;;;;12.43;7.60;;;;;;;;;;5070513;28;20598;-56
2023/01/18 15:15:39;;;;;;;15.27;7.20;;;;;;;;;;5072627;28;20172;-55